Allerton, Illinois
Current Conditions -  °F | °C
As of 8:53 PM on Friday 19 Dec 2014 (Local Time) from KCMI Reporting Station
Haze Haze  
Wind Chill: -7°   Ceiling: Unl
Heat Index: -3°   Visibility: 6mi
Dew Point: -5°   Wind: 6mph
Humidity: 88%   Direction: 90°E
Pressure: 30.26"   Gusts: NA
Location:  39.91°N, 87.94°W
Report Text: KCMI 200253Z 09005KT 6SM BR CLR M03/M05 A3026 RMK AO2 SLP258 T10331050 56010
Loading
Personal Weather Stations






























Interactive Weather Map New forecast layout! Learn more

10-Day Weather Forecast

Advertisements
Track Severe Weather on mobile